sensor_id;sensor_type;location;lat;lon;timestamp;P1;P2;P0
74430;PMS7003;62863;52.062;23.764;2022-09-30T00:04:16;27.3;21.3;13.7
74430;PMS7003;62863;52.062;23.764;2022-09-30T00:08:44;31.7;26.7;19
74430;PMS7003;62863;52.062;23.764;2022-09-30T00:13:49;25;25;16
74430;PMS7003;62863;52.062;23.764;2022-09-30T00:18:58;35;29.5;18.3
74430;PMS7003;62863;52.062;23.764;2022-09-30T00:24:14;38.7;34;23.3
74430;PMS7003;62863;52.062;23.764;2022-09-30T00:29:12;54.3;41.3;27.3
74430;PMS7003;62863;52.062;23.764;2022-09-30T00:34:08;47.5;39;27
74430;PMS7003;62863;52.062;23.764;2022-09-30T00:39:14;32.8;29.3;20.5
74430;PMS7003;62863;52.062;23.764;2022-09-30T00:45:14;26.5;25.5;19
74430;PMS7003;62863;52.062;23.764;2022-09-30T00:49:15;35.3;30;20.5
74430;PMS7003;62863;52.062;23.764;2022-09-30T00:53:42;32;27;19
74430;PMS7003;62863;52.062;23.764;2022-09-30T00:58:52;34.8;28.8;19.6
74430;PMS7003;62863;52.062;23.764;2022-09-30T01:03:37;28;24;16
74430;PMS7003;62863;52.062;23.764;2022-09-30T01:08:44;27;23.5;15
74430;PMS7003;62863;52.062;23.764;2022-09-30T01:13:48;26.3;21.3;16
74430;PMS7003;62863;52.062;23.764;2022-09-30T01:19:18;26.7;23.3;15.7
74430;PMS7003;62863;52.062;23.764;2022-09-30T01:24:37;17;17;13
74430;PMS7003;62863;52.062;23.764;2022-09-30T01:34:09;24.3;19.7;13.3
74430;PMS7003;62863;52.062;23.764;2022-09-30T01:39:04;23;18;11.5
74430;PMS7003;62863;52.062;23.764;2022-09-30T01:44:14;19.8;16.8;12.5
74430;PMS7003;62863;52.062;23.764;2022-09-30T01:48:50;19;17.3;13
74430;PMS7003;62863;52.062;23.764;2022-09-30T01:53:37;18.5;16;11.5
74430;PMS7003;62863;52.062;23.764;2022-09-30T01:58:36;18.7;17;12
74430;PMS7003;62863;52.062;23.764;2022-09-30T02:04:03;18.8;15.5;10.8
74430;PMS7003;62863;52.062;23.764;2022-09-30T02:08:58;19.5;17;11.5
74430;PMS7003;62863;52.062;23.764;2022-09-30T02:14:14;17;13;8.5
74430;PMS7003;62863;52.062;23.764;2022-09-30T02:19:10;15.8;13.8;8.8
74430;PMS7003;62863;52.062;23.764;2022-09-30T02:24:04;15.5;14;10
74430;PMS7003;62863;52.062;23.764;2022-09-30T02:29:03;15.8;14;9.8
74430;PMS7003;62863;52.062;23.764;2022-09-30T02:34:18;14.3;11;8.3
74430;PMS7003;62863;52.062;23.764;2022-09-30T02:38:40;16;12.3;8.3
74430;PMS7003;62863;52.062;23.764;2022-09-30T02:44:04;14;9.7;6.3
74430;PMS7003;62863;52.062;23.764;2022-09-30T02:54:19;16.8;14;10.6
74430;PMS7003;62863;52.062;23.764;2022-09-30T02:59:16;12.7;10.3;8
74430;PMS7003;62863;52.062;23.764;2022-09-30T03:03:57;19;13;9.5
74430;PMS7003;62863;52.062;23.764;2022-09-30T03:09:14;20.5;16.3;11
74430;PMS7003;62863;52.062;23.764;2022-09-30T03:14:18;19.6;17;12
74430;PMS7003;62863;52.062;23.764;2022-09-30T03:19:08;24;18;14
74430;PMS7003;62863;52.062;23.764;2022-09-30T03:24:27;17;14.7;10.7
74430;PMS7003;62863;52.062;23.764;2022-09-30T03:28:35;17.2;14.4;10.8
74430;PMS7003;62863;52.062;23.764;2022-09-30T03:33:51;16;15.3;11
74430;PMS7003;62863;52.062;23.764;2022-09-30T03:38:37;19.3;15.7;11.7
74430;PMS7003;62863;52.062;23.764;2022-09-30T03:44:01;15;13.3;9.3
74430;PMS7003;62863;52.062;23.764;2022-09-30T03:49:22;16.3;12;9.3
74430;PMS7003;62863;52.062;23.764;2022-09-30T03:54:07;15.5;13.8;9.8
74430;PMS7003;62863;52.062;23.764;2022-09-30T03:59:00;13;12.5;9
74430;PMS7003;62863;52.062;23.764;2022-09-30T04:04:00;14.8;11.8;8.3
74430;PMS7003;62863;52.062;23.764;2022-09-30T04:09:06;15.6;13.8;9.6
74430;PMS7003;62863;52.062;23.764;2022-09-30T04:14:20;17.6;14;10.2
74430;PMS7003;62863;52.062;23.764;2022-09-30T04:19:20;21;14;12
74430;PMS7003;62863;52.062;23.764;2022-09-30T04:23:44;14;13.3;10
74430;PMS7003;62863;52.062;23.764;2022-09-30T04:28:56;12.5;11;8.5
74430;PMS7003;62863;52.062;23.764;2022-09-30T04:34:16;13.5;11.8;9
74430;PMS7003;62863;52.062;23.764;2022-09-30T04:39:16;14.4;12.4;8.8
74430;PMS7003;62863;52.062;23.764;2022-09-30T04:43:56;13;9.4;7.8
74430;PMS7003;62863;52.062;23.764;2022-09-30T04:49:12;13.8;11.8;9
74430;PMS7003;62863;52.062;23.764;2022-09-30T04:54:04;14.8;12.4;8.8
74430;PMS7003;62863;52.062;23.764;2022-09-30T04:58:34;19.2;15.2;12.2
74430;PMS7003;62863;52.062;23.764;2022-09-30T05:04:02;16.6;13.4;10
74430;PMS7003;62863;52.062;23.764;2022-09-30T05:09:16;24.5;21.8;15.3
74430;PMS7003;62863;52.062;23.764;2022-09-30T05:13:46;38.2;31.4;21
74430;PMS7003;62863;52.062;23.764;2022-09-30T05:18:44;45.6;38.6;26.2
74430;PMS7003;62863;52.062;23.764;2022-09-30T05:24:18;64.8;50.5;31.3
74430;PMS7003;62863;52.062;23.764;2022-09-30T05:28:58;63.6;48.6;29.6
74430;PMS7003;62863;52.062;23.764;2022-09-30T05:34:18;60.6;47;29
74430;PMS7003;62863;52.062;23.764;2022-09-30T05:38:58;34;31.8;22
74430;PMS7003;62863;52.062;23.764;2022-09-30T05:44:10;27.4;23;16.2
74430;PMS7003;62863;52.062;23.764;2022-09-30T05:49:08;27;25;19
74430;PMS7003;62863;52.062;23.764;2022-09-30T05:53:50;31.8;28.6;19.6
74430;PMS7003;62863;52.062;23.764;2022-09-30T05:58:44;32.2;29.2;19.6
74430;PMS7003;62863;52.062;23.764;2022-09-30T06:03:46;38.2;32.6;22.2
74430;PMS7003;62863;52.062;23.764;2022-09-30T06:08:34;45.8;35.8;23
74430;PMS7003;62863;52.062;23.764;2022-09-30T06:13:56;41.8;34;22.6
74430;PMS7003;62863;52.062;23.764;2022-09-30T06:18:56;34.6;29.2;20.2
74430;PMS7003;62863;52.062;23.764;2022-09-30T06:24:18;32.2;28.6;18.6
74430;PMS7003;62863;52.062;23.764;2022-09-30T06:29:12;29;25.2;17.4
74430;PMS7003;62863;52.062;23.764;2022-09-30T06:33:50;25.2;23.4;16
74430;PMS7003;62863;52.062;23.764;2022-09-30T06:39:16;25.8;23;15.5
74430;PMS7003;62863;52.062;23.764;2022-09-30T06:44:18;24.2;21.6;14.6
74430;PMS7003;62863;52.062;23.764;2022-09-30T06:49:16;25.6;22;15
74430;PMS7003;62863;52.062;23.764;2022-09-30T06:53:45;25.6;22.6;15.6
74430;PMS7003;62863;52.062;23.764;2022-09-30T06:58:47;25.3;22.5;15.8
74430;PMS7003;62863;52.062;23.764;2022-09-30T07:04:16;30;26;15
74430;PMS7003;62863;52.062;23.764;2022-09-30T07:09:03;25;19.3;13.3
74430;PMS7003;62863;52.062;23.764;2022-09-30T07:13:54;17;17;11
74430;PMS7003;62863;52.062;23.764;2022-09-30T07:19:09;18.7;16.3;11.7
74430;PMS7003;62863;52.062;23.764;2022-09-30T07:24:04;19;16.7;11.7
74430;PMS7003;62863;52.062;23.764;2022-09-30T07:28:52;20.5;19.5;13.8
74430;PMS7003;62863;52.062;23.764;2022-09-30T07:34:02;17;15;11
74430;PMS7003;62863;52.062;23.764;2022-09-30T07:39:18;18;15.3;10.3
74430;PMS7003;62863;52.062;23.764;2022-09-30T07:43:47;16.3;13.5;9.5
74430;PMS7003;62863;52.062;23.764;2022-09-30T07:48:45;14;11.8;8
74430;PMS7003;62863;52.062;23.764;2022-09-30T07:54:20;12.8;11.4;8
74430;PMS7003;62863;52.062;23.764;2022-09-30T07:59:11;13.6;12.8;8.8
74430;PMS7003;62863;52.062;23.764;2022-09-30T08:04:17;14;11.8;8.4
74430;PMS7003;62863;52.062;23.764;2022-09-30T08:08:49;13.8;10.8;8
74430;PMS7003;62863;52.062;23.764;2022-09-30T08:13:52;16;12;8.2
74430;PMS7003;62863;52.062;23.764;2022-09-30T08:19:17;16.4;13;9.2
74430;PMS7003;62863;52.062;23.764;2022-09-30T08:23:50;16;13.8;10.2
74430;PMS7003;62863;52.062;23.764;2022-09-30T08:28:38;13.4;11.4;8.6
74430;PMS7003;62863;52.062;23.764;2022-09-30T08:33:44;13.6;11.2;8.2
74430;PMS7003;62863;52.062;23.764;2022-09-30T08:38:35;13.6;11;7.6
74430;PMS7003;62863;52.062;23.764;2022-09-30T08:44:03;10.8;10;7.8
74430;PMS7003;62863;52.062;23.764;2022-09-30T08:48:51;11.2;10.4;7.6
74430;PMS7003;62863;52.062;23.764;2022-09-30T08:54:17;12.8;11.2;8.2
74430;PMS7003;62863;52.062;23.764;2022-09-30T08:59:27;14.2;12;8
74430;PMS7003;62863;52.062;23.764;2022-09-30T09:03:42;11.8;9.6;6.6
74430;PMS7003;62863;52.062;23.764;2022-09-30T09:09:26;14;11;8.2
74430;PMS7003;62863;52.062;23.764;2022-09-30T09:14:45;10.6;8.8;6.2
74430;PMS7003;62863;52.062;23.764;2022-09-30T09:19:18;12.8;10.6;6.8
74430;PMS7003;62863;52.062;23.764;2022-09-30T09:23:34;11.8;9.6;7.6
74430;PMS7003;62863;52.062;23.764;2022-09-30T09:29:21;10.8;9.2;6.6
74430;PMS7003;62863;52.062;23.764;2022-09-30T09:34:14;12.8;10.4;7.2
74430;PMS7003;62863;52.062;23.764;2022-09-30T09:39:03;12.4;9.4;7
74430;PMS7003;62863;52.062;23.764;2022-09-30T09:43:58;14.3;11.3;8.3
74430;PMS7003;62863;52.062;23.764;2022-09-30T09:49:29;14.2;12.2;9.2
74430;PMS7003;62863;52.062;23.764;2022-09-30T09:54:04;12;11.2;8
74430;PMS7003;62863;52.062;23.764;2022-09-30T09:59:07;12.8;11.2;8.6
74430;PMS7003;62863;52.062;23.764;2022-09-30T10:04:30;12.8;9.8;7.8
74430;PMS7003;62863;52.062;23.764;2022-09-30T10:09:27;12.6;10.6;8.4
74430;PMS7003;62863;52.062;23.764;2022-09-30T10:13:40;12;10;7.6
74430;PMS7003;62863;52.062;23.764;2022-09-30T10:18:46;10.8;9.8;7.2
74430;PMS7003;62863;52.062;23.764;2022-09-30T10:24:18;12.2;10;7.2
74430;PMS7003;62863;52.062;23.764;2022-09-30T10:29:23;11.4;9.4;7.6
74430;PMS7003;62863;52.062;23.764;2022-09-30T10:34:19;14;10.6;8
74430;PMS7003;62863;52.062;23.764;2022-09-30T10:39:02;11;10.7;8
74430;PMS7003;62863;52.062;23.764;2022-09-30T10:44:13;10.4;9.8;7.2
74430;PMS7003;62863;52.062;23.764;2022-09-30T10:50:21;12.5;11;7.3
74430;PMS7003;62863;52.062;23.764;2022-09-30T10:53:52;12.3;10.3;7
74430;PMS7003;62863;52.062;23.764;2022-09-30T10:58:40;10.8;8.8;6.6
74430;PMS7003;62863;52.062;23.764;2022-09-30T11:04:17;10.4;8.2;6.4
74430;PMS7003;62863;52.062;23.764;2022-09-30T11:08:48;10.4;7.6;5
74430;PMS7003;62863;52.062;23.764;2022-09-30T11:13:54;9.8;8.6;7
74430;PMS7003;62863;52.062;23.764;2022-09-30T11:19:00;10.6;8.6;6.6
74430;PMS7003;62863;52.062;23.764;2022-09-30T11:24:25;9.6;9;6.2
74430;PMS7003;62863;52.062;23.764;2022-09-30T11:29:57;8.8;7.4;5.6
74430;PMS7003;62863;52.062;23.764;2022-09-30T11:34:19;6.6;6.4;5.2
74430;PMS7003;62863;52.062;23.764;2022-09-30T11:39:40;7.6;6.4;5.6
74430;PMS7003;62863;52.062;23.764;2022-09-30T11:44:31;8.3;6.7;5.3
74430;PMS7003;62863;52.062;23.764;2022-09-30T11:49:45;9;6;5
74430;PMS7003;62863;52.062;23.764;2022-09-30T11:54:18;7;6;4.5
74430;PMS7003;62863;52.062;23.764;2022-09-30T11:58:46;7;6.2;4.8
74430;PMS7003;62863;52.062;23.764;2022-09-30T12:04:23;9.2;7.4;5.8
74430;PMS7003;62863;52.062;23.764;2022-09-30T12:09:08;9.8;7.8;5.8
74430;PMS7003;62863;52.062;23.764;2022-09-30T12:13:37;8.6;8;6.6
74430;PMS7003;62863;52.062;23.764;2022-09-30T12:19:18;7.8;6.8;5.2
74430;PMS7003;62863;52.062;23.764;2022-09-30T12:24:08;7.4;6;4.8
74430;PMS7003;62863;52.062;23.764;2022-09-30T12:28:58;9;7.8;6.2
74430;PMS7003;62863;52.062;23.764;2022-09-30T12:34:13;7.8;6.8;4.8
74430;PMS7003;62863;52.062;23.764;2022-09-30T12:39:32;7.8;5.8;4.8
74430;PMS7003;62863;52.062;23.764;2022-09-30T12:48:54;7.2;6;4.6
74430;PMS7003;62863;52.062;23.764;2022-09-30T12:54:25;6;5.4;4
74430;PMS7003;62863;52.062;23.764;2022-09-30T12:59:13;8.7;7.3;6
74430;PMS7003;62863;52.062;23.764;2022-09-30T13:04:28;12.7;9.3;7
74430;PMS7003;62863;52.062;23.764;2022-09-30T13:09:19;10;9.5;6.5
74430;PMS7003;62863;52.062;23.764;2022-09-30T13:14:23;12.5;10.5;7.5
74430;PMS7003;62863;52.062;23.764;2022-09-30T13:19:17;12.3;9;6.7
74430;PMS7003;62863;52.062;23.764;2022-09-30T13:23:52;14.6;12.6;9.6
74430;PMS7003;62863;52.062;23.764;2022-09-30T13:29:25;17;15;11.5
74430;PMS7003;62863;52.062;23.764;2022-09-30T13:34:11;17.7;15.7;10.3
74430;PMS7003;62863;52.062;23.764;2022-09-30T13:38:44;19.5;13.5;8.5
74430;PMS7003;62863;52.062;23.764;2022-09-30T13:43:39;15.7;13.3;10
74430;PMS7003;62863;52.062;23.764;2022-09-30T13:48:57;16;13.4;9.4
74430;PMS7003;62863;52.062;23.764;2022-09-30T13:54:29;17.6;15.2;11
74430;PMS7003;62863;52.062;23.764;2022-09-30T14:00:11;19.4;16.2;11
74430;PMS7003;62863;52.062;23.764;2022-09-30T14:03:57;16.8;15;10.4
74430;PMS7003;62863;52.062;23.764;2022-09-30T14:08:51;17.2;14.6;9.8
74430;PMS7003;62863;52.062;23.764;2022-09-30T14:14:12;17.5;15.3;10.8
74430;PMS7003;62863;52.062;23.764;2022-09-30T14:19:26;16.4;15.2;11.4
74430;PMS7003;62863;52.062;23.764;2022-09-30T14:23:34;18.4;16.6;12.4
74430;PMS7003;62863;52.062;23.764;2022-09-30T14:28:46;20.2;16.6;12.2
74430;PMS7003;62863;52.062;23.764;2022-09-30T14:33:43;18;17;12.2
74430;PMS7003;62863;52.062;23.764;2022-09-30T14:39:00;21.2;15.8;11
74430;PMS7003;62863;52.062;23.764;2022-09-30T14:44:10;20.5;18.5;13
74430;PMS7003;62863;52.062;23.764;2022-09-30T14:49:13;16;16;12
74430;PMS7003;62863;52.062;23.764;2022-09-30T14:54:13;19;15.5;10.5
74430;PMS7003;62863;52.062;23.764;2022-09-30T14:58:38;20;17.5;12.3
74430;PMS7003;62863;52.062;23.764;2022-09-30T15:04:00;18.8;16.8;12.6
74430;PMS7003;62863;52.062;23.764;2022-09-30T15:09:22;25.2;19.6;13.2
74430;PMS7003;62863;52.062;23.764;2022-09-30T15:13:47;21.8;20.5;13.5
74430;PMS7003;62863;52.062;23.764;2022-09-30T15:18:45;24.5;19.5;13.5
74430;PMS7003;62863;52.062;23.764;2022-09-30T15:23:35;24.5;20.5;15
74430;PMS7003;62863;52.062;23.764;2022-09-30T15:29:22;17;15;11
74430;PMS7003;62863;52.062;23.764;2022-09-30T15:34:19;16.3;15.3;11
74430;PMS7003;62863;52.062;23.764;2022-09-30T15:38:58;21;20;13
74430;PMS7003;62863;52.062;23.764;2022-09-30T15:44:15;21.5;21;15.5
74430;PMS7003;62863;52.062;23.764;2022-09-30T15:49:30;22.7;19.7;13
74430;PMS7003;62863;52.062;23.764;2022-09-30T15:53:55;19;18;13
74430;PMS7003;62863;52.062;23.764;2022-09-30T15:58:53;28;18;15
74430;PMS7003;62863;52.062;23.764;2022-09-30T16:08:38;28.5;22.5;16
74430;PMS7003;62863;52.062;23.764;2022-09-30T16:13:35;25;21;15
74430;PMS7003;62863;52.062;23.764;2022-09-30T16:18:57;25.3;23.7;16.7
74430;PMS7003;62863;52.062;23.764;2022-09-30T16:29:09;28;26.5;19
74430;PMS7003;62863;52.062;23.764;2022-09-30T16:33:57;31;28.5;19
74430;PMS7003;62863;52.062;23.764;2022-09-30T16:38:49;29;27;20
74430;PMS7003;62863;52.062;23.764;2022-09-30T16:49:23;40;35;22
74430;PMS7003;62863;52.062;23.764;2022-09-30T16:53:57;40;35;22
74430;PMS7003;62863;52.062;23.764;2022-09-30T16:58:45;25.3;23.3;15.7
74430;PMS7003;62863;52.062;23.764;2022-09-30T17:03:57;30.2;26.4;16.2
74430;PMS7003;62863;52.062;23.764;2022-09-30T17:08:59;30.2;26.4;16.2
74430;PMS7003;62863;52.062;23.764;2022-09-30T17:13:35;25;23;15.5
74430;PMS7003;62863;52.062;23.764;2022-09-30T17:19:13;22.7;19.7;14
74430;PMS7003;62863;52.062;23.764;2022-09-30T17:23:35;24.5;20.5;13.5
74430;PMS7003;62863;52.062;23.764;2022-09-30T17:28:49;24;20.5;15
74430;PMS7003;62863;52.062;23.764;2022-09-30T17:33:53;21;16;11
74430;PMS7003;62863;52.062;23.764;2022-09-30T17:39:07;21;16;11
74430;PMS7003;62863;52.062;23.764;2022-09-30T17:44:23;19;15;9.5
74430;PMS7003;62863;52.062;23.764;2022-09-30T17:48:35;17;16;11
74430;PMS7003;62863;52.062;23.764;2022-09-30T18:28:43;18;12;9
74430;PMS7003;62863;52.062;23.764;2022-09-30T18:34:10;18;15;9
74430;PMS7003;62863;52.062;23.764;2022-09-30T18:38:35;20;17;11
74430;PMS7003;62863;52.062;23.764;2022-09-30T18:43:45;20;17;11
74430;PMS7003;62863;52.062;23.764;2022-09-30T19:28:57;20;17;11
74430;PMS7003;62863;52.062;23.764;2022-09-30T19:33:46;17;15;9
74430;PMS7003;62863;52.062;23.764;2022-09-30T19:39:19;19;16.5;11.5
74430;PMS7003;62863;52.062;23.764;2022-09-30T19:43:53;19;16.5;11.5
74430;PMS7003;62863;52.062;23.764;2022-09-30T19:48:55;18;18;13
74430;PMS7003;62863;52.062;23.764;2022-09-30T19:54:01;17;16;11
74430;PMS7003;62863;52.062;23.764;2022-09-30T19:58:50;21;16;12
74430;PMS7003;62863;52.062;23.764;2022-09-30T20:04:09;20.5;17;11.5
74430;PMS7003;62863;52.062;23.764;2022-09-30T20:08:44;20.5;17;11.5
74430;PMS7003;62863;52.062;23.764;2022-09-30T20:14:19;17.3;15.3;11.3
74430;PMS7003;62863;52.062;23.764;2022-09-30T20:18:45;16.5;14.5;9
74430;PMS7003;62863;52.062;23.764;2022-09-30T20:23:53;23.5;18.5;14
74430;PMS7003;62863;52.062;23.764;2022-09-30T20:29:21;23.5;18.5;14
74430;PMS7003;62863;52.062;23.764;2022-09-30T20:34:11;15;14;9
74430;PMS7003;62863;52.062;23.764;2022-09-30T20:39:19;23;20;12
74430;PMS7003;62863;52.062;23.764;2022-09-30T20:43:59;13;10;8
74430;PMS7003;62863;52.062;23.764;2022-09-30T20:49:11;13;10;8
74430;PMS7003;62863;52.062;23.764;2022-09-30T20:54:21;16;14;12
74430;PMS7003;62863;52.062;23.764;2022-09-30T20:58:55;20;11;9
74430;PMS7003;62863;52.062;23.764;2022-09-30T21:03:55;24;18;12
74430;PMS7003;62863;52.062;23.764;2022-09-30T21:08:43;18.5;15;9.5
74430;PMS7003;62863;52.062;23.764;2022-09-30T21:13:43;18.5;15;9.5
74430;PMS7003;62863;52.062;23.764;2022-09-30T21:18:57;16;13.3;8.7
74430;PMS7003;62863;52.062;23.764;2022-09-30T21:23:57;15;11.5;8.5
74430;PMS7003;62863;52.062;23.764;2022-09-30T21:29:13;21;12;8
74430;PMS7003;62863;52.062;23.764;2022-09-30T21:34:21;13;10;8
74430;PMS7003;62863;52.062;23.764;2022-09-30T21:38:58;13.3;12.3;9.3
74430;PMS7003;62863;52.062;23.764;2022-09-30T21:44:19;14;13;9
74430;PMS7003;62863;52.062;23.764;2022-09-30T21:49:17;18.5;15;10
74430;PMS7003;62863;52.062;23.764;2022-09-30T21:54:01;14;14;11
74430;PMS7003;62863;52.062;23.764;2022-09-30T21:58:46;16;13;8
74430;PMS7003;62863;52.062;23.764;2022-09-30T22:03:45;16.5;13.5;9.5
74430;PMS7003;62863;52.062;23.764;2022-09-30T22:08:47;18.7;14.7;10
74430;PMS7003;62863;52.062;23.764;2022-09-30T22:14:05;18.7;14.7;10
74430;PMS7003;62863;52.062;23.764;2022-09-30T22:18:57;13.3;10;8
74430;PMS7003;62863;52.062;23.764;2022-09-30T22:24:11;16;12;8
74430;PMS7003;62863;52.062;23.764;2022-09-30T22:29:09;16;12;8
74430;PMS7003;62863;52.062;23.764;2022-09-30T22:34:19;13;12;8.5
74430;PMS7003;62863;52.062;23.764;2022-09-30T22:39:03;15;12;9
74430;PMS7003;62863;52.062;23.764;2022-09-30T22:44:21;17;14;9
74430;PMS7003;62863;52.062;23.764;2022-09-30T22:48:45;17;14;9
74430;PMS7003;62863;52.062;23.764;2022-09-30T22:53:53;17;14;9
74430;PMS7003;62863;52.062;23.764;2022-09-30T22:58:45;16;14.5;10
74430;PMS7003;62863;52.062;23.764;2022-09-30T23:04:15;23;18;12
74430;PMS7003;62863;52.062;23.764;2022-09-30T23:13:57;23;18;12
74430;PMS7003;62863;52.062;23.764;2022-09-30T23:19:11;13;12;8
74430;PMS7003;62863;52.062;23.764;2022-09-30T23:24:09;23;18;11
74430;PMS7003;62863;52.062;23.764;2022-09-30T23:29:04;15;11;9
74430;PMS7003;62863;52.062;23.764;2022-09-30T23:33:51;17.8;14;9.5
74430;PMS7003;62863;52.062;23.764;2022-09-30T23:39:01;15.7;12.7;8.7
74430;PMS7003;62863;52.062;23.764;2022-09-30T23:43:35;17;14;9.7
74430;PMS7003;62863;52.062;23.764;2022-09-30T23:48:35;16;14.5;11
74430;PMS7003;62863;52.062;23.764;2022-09-30T23:53:57;16;14.5;11
74430;PMS7003;62863;52.062;23.764;2022-09-30T23:59:17;14.3;13.3;9
